Terminal Aerodrome Forecast
Issued by NWS

Home | Current Version | Previous Version | Text Only | Print | Product List | Glossary On
Versions: 1 2 3 4 5 6 7 8 9 10 11 12 13 14 15 16 17 18 19 20 21 22 23 24 25 26
000
FTUS45 KBYZ 111136
TAFLVM
TAF
KLVM 111136Z 1112/1212 29009KT P6SM BKN080
     FM111700 24020G32KT 6SM BLSN VCSH BKN060
     FM120600 26015KT P6SM VCSH BKN050=

USA.gov is the U.S. government's official web portal to all federal, state and local government web resources and services.